Time;durP1;ratioP1;P1;durP2;ratioP2;P2;SDS_P1;SDS_P2;PMS_P1;PMS_P2;Temp;Humidity;BMP_temperature;BMP_pressure;BME280_temperature;BME280_humidity;BME280_pressure;Samples;Min_cycle;Max_cycle;Signal;HPM_P1;HPM_P2
2021/09/27 00:02:19;;;;;;;24.40;11.20;;;;;;;;;;5031709;28;20439;-59
2021/09/27 00:04:45;;;;;;;27.63;12.55;;;;;;;;;;5032095;28;20095;-59
2021/09/27 00:07:12;;;;;;;18.85;10.30;;;;;;;;;;5030034;28;20056;-59
2021/09/27 00:09:38;;;;;;;21.05;10.48;;;;;;;;;;5032253;28;20085;-59
2021/09/27 00:12:06;;;;;;;23.77;11.48;;;;;;;;;;5032850;28;20077;-59
2021/09/27 00:14:32;;;;;;;28.08;10.55;;;;;;;;;;5031696;28;20128;-59
2021/09/27 00:17:00;;;;;;;21.17;10.57;;;;;;;;;;5031348;28;20517;-59
2021/09/27 00:19:26;;;;;;;24.40;10.88;;;;;;;;;;5029679;28;20061;-59
2021/09/27 00:21:54;;;;;;;22.55;9.38;;;;;;;;;;5031428;28;20037;-59
2021/09/27 00:24:21;;;;;;;20.70;10.68;;;;;;;;;;5032082;28;20053;-59
2021/09/27 00:26:47;;;;;;;18.45;10.15;;;;;;;;;;5031406;28;20041;-59
2021/09/27 00:29:14;;;;;;;21.92;9.52;;;;;;;;;;5031031;28;20069;-59
2021/09/27 00:31:41;;;;;;;24.88;10.43;;;;;;;;;;5031017;28;20450;-59
2021/09/27 00:34:08;;;;;;;24.27;11.05;;;;;;;;;;5031151;28;20053;-59
2021/09/27 00:36:34;;;;;;;20.50;10.02;;;;;;;;;;5031532;28;20056;-58
2021/09/27 00:39:01;;;;;;;20.40;10.27;;;;;;;;;;5032258;28;20077;-59
2021/09/27 00:41:27;;;;;;;20.65;9.77;;;;;;;;;;5030860;28;20407;-59
2021/09/27 00:43:53;;;;;;;18.15;9.60;;;;;;;;;;5030719;28;20049;-59
2021/09/27 00:46:23;;;;;;;27.77;9.68;;;;;;;;;;5029641;28;20044;-59
2021/09/27 00:48:50;;;;;;;17.55;9.30;;;;;;;;;;5030092;28;20077;-59
2021/09/27 00:51:18;;;;;;;18.80;9.75;;;;;;;;;;5033109;28;20052;-59
2021/09/27 00:53:47;;;;;;;25.77;9.90;;;;;;;;;;5031238;28;20072;-59
2021/09/27 00:56:14;;;;;;;17.35;9.75;;;;;;;;;;5030849;28;20057;-59
2021/09/27 00:58:41;;;;;;;16.38;9.35;;;;;;;;;;5029992;28;20483;-59
2021/09/27 01:01:07;;;;;;;23.95;9.95;;;;;;;;;;5030094;28;20075;-59
2021/09/27 01:03:34;;;;;;;19.73;9.43;;;;;;;;;;5032467;28;20127;-59
2021/09/27 01:06:16;;;;;;;17.17;8.50;;;;;;;;;;5031799;28;20076;-59
2021/09/27 01:09:03;;;;;;;17.27;8.52;;;;;;;;;;5031138;28;20049;-59
2021/09/27 01:11:48;;;;;;;18.40;8.70;;;;;;;;;;5026999;28;20061;-59
2021/09/27 01:14:29;;;;;;;21.25;9.60;;;;;;;;;;5031220;28;20065;-59
2021/09/27 01:17:22;;;;;;;19.13;8.68;;;;;;;;;;5029815;28;20046;-59
2021/09/27 01:20:21;;;;;;;24.27;8.65;;;;;;;;;;5029935;28;20119;-59
2021/09/27 01:23:02;;;;;;;13.75;7.90;;;;;;;;;;5009244;28;20061;-60
2021/09/27 01:25:29;;;;;;;17.40;8.25;;;;;;;;;;5009079;28;20057;-59
2021/09/27 01:28:13;;;;;;;21.73;7.95;;;;;;;;;;5009391;28;20475;-59
2021/09/27 01:30:42;;;;;;;18.88;9.20;;;;;;;;;;4992820;28;20101;-59
2021/09/27 01:33:16;;;;;;;17.00;9.63;;;;;;;;;;5009597;28;20136;-59
2021/09/27 01:35:48;;;;;;;16.10;8.18;;;;;;;;;;5008931;28;20844;-59
2021/09/27 01:38:15;;;;;;;14.43;7.43;;;;;;;;;;5008948;28;20538;-59
2021/09/27 01:40:59;;;;;;;18.95;8.05;;;;;;;;;;5009032;28;20496;-59
2021/09/27 01:43:44;;;;;;;11.27;6.93;;;;;;;;;;5009107;28;20071;-59
2021/09/27 01:46:16;;;;;;;19.95;7.60;;;;;;;;;;4991292;28;20061;-59
2021/09/27 01:48:56;;;;;;;16.98;7.93;;;;;;;;;;5013301;28;20089;-59
2021/09/27 01:51:26;;;;;;;18.70;8.25;;;;;;;;;;5014320;28;20488;-59
2021/09/27 01:53:56;;;;;;;18.92;8.20;;;;;;;;;;5013811;28;20046;-59
2021/09/27 01:56:34;;;;;;;16.70;7.60;;;;;;;;;;5013401;28;20042;-59
2021/09/27 01:59:14;;;;;;;17.08;6.90;;;;;;;;;;5029092;28;20503;-59
2021/09/27 02:01:48;;;;;;;11.98;6.93;;;;;;;;;;5034528;28;20068;-59
2021/09/27 02:04:35;;;;;;;12.13;7.53;;;;;;;;;;5033402;28;20050;-59
2021/09/27 02:07:02;;;;;;;10.45;6.32;;;;;;;;;;5015413;28;20074;-59
2021/09/27 02:09:32;;;;;;;13.07;7.22;;;;;;;;;;5036032;28;20629;-59
2021/09/27 02:12:02;;;;;;;13.27;6.57;;;;;;;;;;5034821;28;20052;-59
2021/09/27 02:14:41;;;;;;;15.40;6.55;;;;;;;;;;5034209;28;20507;-59
2021/09/27 02:17:07;;;;;;;10.70;6.30;;;;;;;;;;5033054;28;20091;-59
2021/09/27 02:19:34;;;;;;;17.85;6.80;;;;;;;;;;5034007;28;20049;-59
2021/09/27 02:22:10;;;;;;;16.27;6.72;;;;;;;;;;5034130;28;20066;-59
2021/09/27 02:25:03;;;;;;;12.85;6.03;;;;;;;;;;5035112;28;20057;-59
2021/09/27 02:27:29;;;;;;;11.32;5.35;;;;;;;;;;5033813;28;20531;-59
2021/09/27 02:29:56;;;;;;;18.65;7.13;;;;;;;;;;5034458;28;20060;-59
2021/09/27 02:32:29;;;;;;;14.10;6.57;;;;;;;;;;5033951;28;20068;-59
2021/09/27 02:34:59;;;;;;;20.38;7.05;;;;;;;;;;5033913;28;20053;-59
2021/09/27 02:37:31;;;;;;;11.32;6.63;;;;;;;;;;5033813;28;20124;-59
2021/09/27 02:40:00;;;;;;;14.20;7.03;;;;;;;;;;5018147;28;20072;-59
2021/09/27 02:42:32;;;;;;;12.75;6.78;;;;;;;;;;5031857;28;20572;-59
2021/09/27 02:44:59;;;;;;;13.30;6.40;;;;;;;;;;5032943;28;20050;-59
2021/09/27 02:47:30;;;;;;;13.10;5.97;;;;;;;;;;5033569;28;20045;-59
2021/09/27 02:49:58;;;;;;;16.58;6.53;;;;;;;;;;5033686;28;20492;-59
2021/09/27 02:52:24;;;;;;;11.27;5.95;;;;;;;;;;5033419;28;20060;-59
2021/09/27 02:54:55;;;;;;;14.05;6.85;;;;;;;;;;5033249;28;20107;-59
2021/09/27 02:57:21;;;;;;;16.25;5.80;;;;;;;;;;5034859;28;20128;-59
2021/09/27 03:00:07;;;;;;;12.55;5.70;;;;;;;;;;5032741;28;20072;-59
2021/09/27 03:02:45;;;;;;;12.85;5.50;;;;;;;;;;5033475;28;20045;-59
2021/09/27 03:05:17;;;;;;;15.23;5.80;;;;;;;;;;5033334;28;20053;-59
2021/09/27 03:08:02;;;;;;;16.27;4.97;;;;;;;;;;5033108;28;20073;-59
2021/09/27 03:10:41;;;;;;;10.75;5.25;;;;;;;;;;5033284;28;20107;-59
2021/09/27 03:13:19;;;;;;;19.23;5.75;;;;;;;;;;5019030;28;20045;-59
2021/09/27 03:16:12;;;;;;;16.27;5.82;;;;;;;;;;5032587;28;20127;-59
2021/09/27 03:18:50;;;;;;;14.02;6.35;;;;;;;;;;5030758;28;20061;-59
2021/09/27 03:21:22;;;;;;;12.88;5.82;;;;;;;;;;5034125;28;20135;-59
2021/09/27 03:24:04;;;;;;;13.82;6.85;;;;;;;;;;5029783;28;20124;-59
2021/09/27 03:26:30;;;;;;;15.82;6.35;;;;;;;;;;5032627;28;20079;-59
2021/09/27 03:29:07;;;;;;;12.13;6.20;;;;;;;;;;5032250;28;20053;-59
2021/09/27 03:31:52;;;;;;;14.18;6.18;;;;;;;;;;5032289;28;20129;-59
2021/09/27 03:34:37;;;;;;;13.40;5.90;;;;;;;;;;5030834;28;20053;-59
2021/09/27 03:37:19;;;;;;;17.52;5.47;;;;;;;;;;5017572;28;20053;-59
2021/09/27 03:39:55;;;;;;;15.95;5.45;;;;;;;;;;5032842;28;20049;-59
2021/09/27 03:42:33;;;;;;;14.07;5.68;;;;;;;;;;5034543;28;20069;-59
2021/09/27 03:45:10;;;;;;;13.88;5.70;;;;;;;;;;5032074;28;20057;-59
2021/09/27 03:47:39;;;;;;;15.10;5.35;;;;;;;;;;5032356;28;20049;-58
2021/09/27 03:50:08;;;;;;;12.13;5.03;;;;;;;;;;5032452;28;20041;-59
2021/09/27 03:52:53;;;;;;;13.45;5.50;;;;;;;;;;5032506;28;20053;-59
2021/09/27 03:55:23;;;;;;;12.57;5.93;;;;;;;;;;5032384;28;20081;-59
2021/09/27 03:57:56;;;;;;;12.02;5.30;;;;;;;;;;5032378;28;20057;-59
2021/09/27 04:00:43;;;;;;;10.88;5.63;;;;;;;;;;5034352;28;20076;-59
2021/09/27 04:03:33;;;;;;;17.50;6.07;;;;;;;;;;5021758;28;20046;-59
2021/09/27 04:06:18;;;;;;;21.23;6.28;;;;;;;;;;5031333;28;20411;-59
2021/09/27 04:09:06;;;;;;;21.15;6.68;;;;;;;;;;5030609;28;20068;-59
2021/09/27 04:11:51;;;;;;;11.50;4.45;;;;;;;;;;5030746;28;20073;-59
2021/09/27 04:14:23;;;;;;;10.60;5.40;;;;;;;;;;5029186;28;20072;-59
2021/09/27 04:16:56;;;;;;;16.77;5.50;;;;;;;;;;5030301;28;20041;-59
2021/09/27 04:19:22;;;;;;;11.63;4.45;;;;;;;;;;5031656;28;20057;-59
2021/09/27 04:21:58;;;;;;;12.50;4.68;;;;;;;;;;5027510;28;20128;-59
2021/09/27 04:24:49;;;;;;;9.40;4.75;;;;;;;;;;5029485;28;20072;-59
2021/09/27 04:27:25;;;;;;;13.55;4.97;;;;;;;;;;5032320;28;20046;-58
2021/09/27 04:30:05;;;;;;;13.75;5.35;;;;;;;;;;5031674;28;20077;-59
2021/09/27 04:32:47;;;;;;;14.10;5.10;;;;;;;;;;5031749;28;20045;-59
2021/09/27 04:35:16;;;;;;;12.82;5.63;;;;;;;;;;5031550;28;20057;-59
2021/09/27 04:37:44;;;;;;;12.57;5.43;;;;;;;;;;5031684;28;20084;-59
2021/09/27 04:40:12;;;;;;;15.18;5.40;;;;;;;;;;5029154;28;20046;-59
2021/09/27 04:42:39;;;;;;;16.10;5.47;;;;;;;;;;5032330;28;20045;-59
2021/09/27 04:45:24;;;;;;;12.50;4.85;;;;;;;;;;5033000;28;20514;-59
2021/09/27 04:48:00;;;;;;;7.93;5.15;;;;;;;;;;5020501;28;20492;-59
2021/09/27 04:50:29;;;;;;;9.40;4.13;;;;;;;;;;5028775;28;20045;-59
2021/09/27 04:52:58;;;;;;;10.75;4.70;;;;;;;;;;5024914;28;20510;-59
2021/09/27 04:55:41;;;;;;;10.48;4.30;;;;;;;;;;5030032;28;20038;-59
2021/09/27 04:58:27;;;;;;;9.15;4.97;;;;;;;;;;5026977;28;20092;-59
2021/09/27 05:00:56;;;;;;;13.35;5.25;;;;;;;;;;5029274;28;20042;-59
2021/09/27 05:03:22;;;;;;;12.40;5.00;;;;;;;;;;5031529;28;20048;-59
2021/09/27 05:05:58;;;;;;;13.98;4.57;;;;;;;;;;5030937;28;20051;-59
2021/09/27 05:08:45;;;;;;;11.93;4.72;;;;;;;;;;5030665;28;20057;-59
2021/09/27 05:11:14;;;;;;;15.05;5.10;;;;;;;;;;5035023;28;20092;-59
2021/09/27 05:13:59;;;;;;;11.70;4.97;;;;;;;;;;5038637;28;20735;-59
2021/09/27 05:16:38;;;;;;;11.77;4.53;;;;;;;;;;5038522;28;20514;-59
2021/09/27 05:19:04;;;;;;;15.98;4.50;;;;;;;;;;5013989;28;20054;-59
2021/09/27 05:21:39;;;;;;;11.75;4.10;;;;;;;;;;5019532;28;20503;-59
2021/09/27 05:24:05;;;;;;;13.95;5.05;;;;;;;;;;5028563;28;20111;-59
2021/09/27 05:26:40;;;;;;;13.05;5.20;;;;;;;;;;5030096;28;20045;-59
2021/09/27 05:29:09;;;;;;;15.32;5.72;;;;;;;;;;5030209;28;20415;-59
2021/09/27 05:31:42;;;;;;;19.00;7.60;;;;;;;;;;5028538;28;20124;-59
2021/09/27 05:34:08;;;;;;;18.35;8.18;;;;;;;;;;5030267;28;20056;-59
2021/09/27 05:36:37;;;;;;;19.45;8.07;;;;;;;;;;5032064;28;20041;-59
2021/09/27 05:39:13;;;;;;;19.30;7.35;;;;;;;;;;5030113;28;20454;-59
2021/09/27 05:41:48;;;;;;;24.85;10.32;;;;;;;;;;5029035;28;20069;-59
2021/09/27 05:44:28;;;;;;;26.58;8.52;;;;;;;;;;5030237;28;20125;-59
2021/09/27 05:46:55;;;;;;;26.10;9.75;;;;;;;;;;5029857;28;20076;-59
2021/09/27 05:49:30;;;;;;;14.93;7.68;;;;;;;;;;5030044;28;20120;-59
2021/09/27 05:52:16;;;;;;;16.58;7.07;;;;;;;;;;5030246;28;20117;-59
2021/09/27 05:54:43;;;;;;;18.65;7.43;;;;;;;;;;5027729;28;20149;-59
2021/09/27 05:57:28;;;;;;;20.52;7.28;;;;;;;;;;5029496;28;20467;-59
2021/09/27 06:00:04;;;;;;;16.05;6.13;;;;;;;;;;5029010;28;20054;-59
2021/09/27 06:02:44;;;;;;;15.57;5.85;;;;;;;;;;5029756;28;20072;-59
2021/09/27 06:05:11;;;;;;;18.23;6.35;;;;;;;;;;5030099;28;20120;-59
2021/09/27 06:07:54;;;;;;;21.15;6.25;;;;;;;;;;5029970;28;20042;-59
2021/09/27 06:10:26;;;;;;;17.35;5.60;;;;;;;;;;5020426;28;20057;-59
2021/09/27 06:13:05;;;;;;;17.63;5.88;;;;;;;;;;5028492;28;20114;-59
2021/09/27 06:15:37;;;;;;;14.27;5.53;;;;;;;;;;5029196;28;20440;-59
2021/09/27 06:18:13;;;;;;;13.15;5.88;;;;;;;;;;5034836;28;20446;-59
2021/09/27 06:20:56;;;;;;;18.30;6.20;;;;;;;;;;5027617;28;20522;-59
2021/09/27 06:23:38;;;;;;;17.80;5.45;;;;;;;;;;5028987;28;20076;-59
2021/09/27 06:26:06;;;;;;;21.00;6.53;;;;;;;;;;5027770;28;20041;-59
2021/09/27 06:28:33;;;;;;;11.45;5.32;;;;;;;;;;5038703;28;20045;-59
2021/09/27 06:31:05;;;;;;;19.35;6.65;;;;;;;;;;5027265;28;20057;-59
2021/09/27 06:33:46;;;;;;;20.02;5.72;;;;;;;;;;5031250;28;20045;-59
2021/09/27 06:36:15;;;;;;;14.18;5.60;;;;;;;;;;5024066;28;20085;-59
2021/09/27 06:38:42;;;;;;;15.32;5.63;;;;;;;;;;5025289;28;20042;-59
2021/09/27 06:41:10;;;;;;;14.60;5.15;;;;;;;;;;5029685;28;20514;-59
2021/09/27 06:43:38;;;;;;;11.48;5.82;;;;;;;;;;5031810;28;20071;-59
2021/09/27 06:46:05;;;;;;;19.33;5.97;;;;;;;;;;5028998;28;20057;-58
2021/09/27 06:48:31;;;;;;;14.00;4.90;;;;;;;;;;5041255;28;20083;-59
2021/09/27 06:50:57;;;;;;;14.60;6.07;;;;;;;;;;5034932;28;20041;-59
2021/09/27 06:53:25;;;;;;;14.32;5.72;;;;;;;;;;5034906;28;20496;-57
2021/09/27 06:55:52;;;;;;;12.60;5.13;;;;;;;;;;5024053;28;20041;-58
2021/09/27 06:58:21;;;;;;;13.20;5.32;;;;;;;;;;5040541;28;20046;-60
2021/09/27 07:00:47;;;;;;;13.25;6.10;;;;;;;;;;5042568;28;20207;-59
2021/09/27 07:03:13;;;;;;;14.40;5.90;;;;;;;;;;5040855;28;20090;-58
2021/09/27 07:05:40;;;;;;;12.32;5.25;;;;;;;;;;5032228;28;20045;-57
2021/09/27 07:08:06;;;;;;;10.77;5.50;;;;;;;;;;5029007;28;20116;-57
2021/09/27 07:10:32;;;;;;;9.85;4.68;;;;;;;;;;5038441;28;20454;-59
2021/09/27 07:12:59;;;;;;;17.30;5.90;;;;;;;;;;5040750;28;20165;-59
2021/09/27 07:15:25;;;;;;;12.23;4.60;;;;;;;;;;5039097;28;20048;-59
2021/09/27 07:17:52;;;;;;;16.60;4.68;;;;;;;;;;5034546;28;20053;-59
2021/09/27 07:20:20;;;;;;;9.30;3.90;;;;;;;;;;5031792;28;20140;-59
2021/09/27 07:22:46;;;;;;;6.88;3.80;;;;;;;;;;5039287;28;20589;-59
2021/09/27 07:25:13;;;;;;;7.25;3.20;;;;;;;;;;5040061;28;20054;-58
2021/09/27 07:27:40;;;;;;;11.90;3.58;;;;;;;;;;5037455;28;20080;-59
2021/09/27 07:30:08;;;;;;;9.80;3.92;;;;;;;;;;5029964;28;20054;-58
2021/09/27 07:32:34;;;;;;;7.72;3.97;;;;;;;;;;5027265;28;20056;-58
2021/09/27 07:35:01;;;;;;;13.98;3.65;;;;;;;;;;5024175;28;20052;-58
2021/09/27 07:37:27;;;;;;;7.10;3.60;;;;;;;;;;5039460;28;20080;-58
2021/09/27 07:39:53;;;;;;;18.10;3.67;;;;;;;;;;5041921;28;20475;-59
2021/09/27 07:42:20;;;;;;;6.93;3.50;;;;;;;;;;5041653;28;20048;-58
2021/09/27 07:44:46;;;;;;;9.65;3.58;;;;;;;;;;5035498;28;20127;-58
2021/09/27 07:47:12;;;;;;;9.73;4.28;;;;;;;;;;5035404;28;20045;-59
2021/09/27 07:49:39;;;;;;;7.95;4.35;;;;;;;;;;5040224;28;20060;-59
2021/09/27 07:52:06;;;;;;;6.15;3.05;;;;;;;;;;5040401;28;20114;-59
2021/09/27 07:54:32;;;;;;;9.05;3.42;;;;;;;;;;5042443;28;20048;-58
2021/09/27 07:56:59;;;;;;;9.55;3.55;;;;;;;;;;5036651;28;20081;-58
2021/09/27 07:59:26;;;;;;;10.38;3.47;;;;;;;;;;5031752;28;20136;-58
2021/09/27 08:01:52;;;;;;;12.40;4.03;;;;;;;;;;5038100;28;20041;-58
2021/09/27 08:04:20;;;;;;;6.40;2.97;;;;;;;;;;5039995;28;20127;-60
2021/09/27 08:06:46;;;;;;;9.48;3.53;;;;;;;;;;5041801;28;20076;-59
2021/09/27 08:09:13;;;;;;;9.20;2.60;;;;;;;;;;5039332;28;20044;-59
2021/09/27 08:11:40;;;;;;;13.82;3.30;;;;;;;;;;5034721;28;20111;-58
2021/09/27 08:14:07;;;;;;;10.18;3.40;;;;;;;;;;5033792;28;20049;-59
2021/09/27 08:16:34;;;;;;;11.52;3.20;;;;;;;;;;5024248;28;20091;-59
2021/09/27 08:19:00;;;;;;;7.05;3.53;;;;;;;;;;5024607;28;20053;-59
2021/09/27 08:21:27;;;;;;;7.22;3.15;;;;;;;;;;5042350;28;20049;-60
2021/09/27 08:23:53;;;;;;;8.40;2.97;;;;;;;;;;5035136;28;20557;-60
2021/09/27 08:26:19;;;;;;;7.15;2.50;;;;;;;;;;5034052;28;20492;-59
2021/09/27 08:28:46;;;;;;;6.72;2.75;;;;;;;;;;5036444;28;20557;-59
2021/09/27 08:31:17;;;;;;;6.50;2.60;;;;;;;;;;5029428;28;20042;-61
2021/09/27 08:33:44;;;;;;;8.60;3.05;;;;;;;;;;5042219;28;20502;-60
2021/09/27 08:36:12;;;;;;;11.18;3.13;;;;;;;;;;5025802;28;20132;-58
2021/09/27 08:38:38;;;;;;;11.90;3.13;;;;;;;;;;5028107;28;20107;-58
2021/09/27 08:41:05;;;;;;;6.10;2.70;;;;;;;;;;5027108;28;20133;-59
2021/09/27 08:43:37;;;;;;;6.55;2.33;;;;;;;;;;5027966;28;20045;-59
2021/09/27 08:46:09;;;;;;;4.90;2.40;;;;;;;;;;5025356;28;20488;-59
2021/09/27 08:48:35;;;;;;;7.38;2.40;;;;;;;;;;5032005;28;20577;-59
2021/09/27 08:51:02;;;;;;;6.15;2.50;;;;;;;;;;5035490;28;20480;-60
2021/09/27 08:53:31;;;;;;;5.72;2.50;;;;;;;;;;5033804;28;20428;-59
2021/09/27 08:56:03;;;;;;;8.45;2.78;;;;;;;;;;5033426;28;20537;-59
2021/09/27 08:58:38;;;;;;;8.10;2.88;;;;;;;;;;5029272;28;20381;-60
2021/09/27 09:01:11;;;;;;;9.18;2.47;;;;;;;;;;5014237;28;20625;-60
2021/09/27 09:03:57;;;;;;;9.15;2.40;;;;;;;;;;5031153;28;20123;-60
2021/09/27 09:06:37;;;;;;;9.00;2.90;;;;;;;;;;5030456;28;20479;-59
2021/09/27 09:09:18;;;;;;;9.43;2.80;;;;;;;;;;5031437;28;20045;-59
2021/09/27 09:11:57;;;;;;;9.90;2.67;;;;;;;;;;5027871;28;20519;-59
2021/09/27 09:14:29;;;;;;;4.22;2.15;;;;;;;;;;5029655;28;20049;-61
2021/09/27 09:16:56;;;;;;;6.28;2.38;;;;;;;;;;5027933;28;20077;-62
2021/09/27 09:19:24;;;;;;;5.20;2.20;;;;;;;;;;5023222;28;20053;-61
2021/09/27 09:21:52;;;;;;;6.05;2.10;;;;;;;;;;5029204;28;20521;-60
2021/09/27 09:24:23;;;;;;;6.80;2.25;;;;;;;;;;5027700;28;20060;-61
2021/09/27 09:26:50;;;;;;;5.82;2.50;;;;;;;;;;5024592;28;20098;-60
2021/09/27 09:29:18;;;;;;;7.43;2.33;;;;;;;;;;5023263;28;20069;-61
2021/09/27 09:31:47;;;;;;;5.45;2.25;;;;;;;;;;5028190;28;20381;-60
2021/09/27 09:34:20;;;;;;;7.07;3.17;;;;;;;;;;5031814;28;20056;-60
2021/09/27 09:36:48;;;;;;;5.05;2.55;;;;;;;;;;5031668;28;20077;-59
2021/09/27 09:39:25;;;;;;;6.28;1.90;;;;;;;;;;5032233;28;20042;-60
2021/09/27 09:41:57;;;;;;;4.93;2.03;;;;;;;;;;5032964;28;20054;-59
2021/09/27 09:44:23;;;;;;;4.70;2.20;;;;;;;;;;5033516;28;20062;-59
2021/09/27 09:47:08;;;;;;;3.67;1.77;;;;;;;;;;5032153;28;20045;-59
2021/09/27 09:49:50;;;;;;;7.35;2.50;;;;;;;;;;5033008;28;20069;-59
2021/09/27 09:52:24;;;;;;;6.25;2.20;;;;;;;;;;5030144;28;20240;-59
2021/09/27 09:54:51;;;;;;;3.45;1.90;;;;;;;;;;5030515;28;20058;-59
2021/09/27 09:57:22;;;;;;;6.13;2.15;;;;;;;;;;5034691;28;20072;-60
2021/09/27 09:59:57;;;;;;;8.70;2.15;;;;;;;;;;5033053;28;20042;-59
2021/09/27 10:02:24;;;;;;;3.70;1.88;;;;;;;;;;5033013;28;20100;-59
2021/09/27 10:04:56;;;;;;;6.20;2.13;;;;;;;;;;5032670;28;20045;-60
2021/09/27 10:07:30;;;;;;;7.43;2.20;;;;;;;;;;5030061;28;20107;-59
2021/09/27 10:10:00;;;;;;;6.28;1.92;;;;;;;;;;5030845;28;20093;-59
2021/09/27 10:12:55;;;;;;;4.22;1.92;;;;;;;;;;5040219;28;20499;-59
2021/09/27 10:15:34;;;;;;;4.43;2.15;;;;;;;;;;5032560;28;20092;-60
2021/09/27 10:18:14;;;;;;;5.03;2.13;;;;;;;;;;5036654;28;20558;-60
2021/09/27 10:20:43;;;;;;;5.80;2.20;;;;;;;;;;5037519;28;20057;-59
2021/09/27 10:23:11;;;;;;;3.90;2.10;;;;;;;;;;5030880;28;20057;-60
2021/09/27 10:25:41;;;;;;;4.38;1.98;;;;;;;;;;5033408;28;20053;-59
2021/09/27 10:28:09;;;;;;;4.13;1.75;;;;;;;;;;5033290;28;20103;-60
2021/09/27 10:30:39;;;;;;;4.97;1.88;;;;;;;;;;5037440;28;20120;-59
2021/09/27 10:33:18;;;;;;;3.78;2.05;;;;;;;;;;5039023;28;20069;-60
2021/09/27 10:35:54;;;;;;;5.45;1.70;;;;;;;;;;5036568;28;20092;-60
2021/09/27 10:38:25;;;;;;;3.25;1.73;;;;;;;;;;5035454;28;20091;-59
2021/09/27 10:40:53;;;;;;;3.53;1.65;;;;;;;;;;5032150;28;20056;-60
2021/09/27 10:43:21;;;;;;;3.50;1.67;;;;;;;;;;5034352;28;20085;-60
2021/09/27 10:45:49;;;;;;;5.13;1.73;;;;;;;;;;5032122;28;20049;-60
2021/09/27 10:48:16;;;;;;;4.78;1.38;;;;;;;;;;5037287;28;20077;-59
2021/09/27 10:50:44;;;;;;;3.40;1.60;;;;;;;;;;5034236;28;20052;-60
2021/09/27 10:53:38;;;;;;;2.53;1.38;;;;;;;;;;5035881;28;20049;-60
2021/09/27 10:56:23;;;;;;;4.75;1.65;;;;;;;;;;5033337;28;20054;-60
2021/09/27 10:59:04;;;;;;;4.07;1.30;;;;;;;;;;5035528;28;20056;-60
2021/09/27 11:01:41;;;;;;;3.80;1.38;;;;;;;;;;5048240;28;20048;-59
2021/09/27 11:04:16;;;;;;;5.15;1.20;;;;;;;;;;5017978;28;20053;-60
2021/09/27 11:06:54;;;;;;;2.28;1.30;;;;;;;;;;5034901;28;20459;-59
2021/09/27 11:09:28;;;;;;;5.43;1.95;;;;;;;;;;5035289;28;20096;-60
2021/09/27 11:12:04;;;;;;;4.15;1.50;;;;;;;;;;5037157;28;20088;-61
2021/09/27 11:14:37;;;;;;;4.50;1.65;;;;;;;;;;5030330;28;20184;-61
2021/09/27 11:17:07;;;;;;;6.43;1.67;;;;;;;;;;5034991;28;20095;-61
2021/09/27 11:19:33;;;;;;;3.92;1.40;;;;;;;;;;5034372;28;20053;-62
2021/09/27 11:22:17;;;;;;;4.22;1.45;;;;;;;;;;5030551;28;20041;-62
2021/09/27 11:24:44;;;;;;;6.50;1.30;;;;;;;;;;5047209;28;20049;-62
2021/09/27 11:27:10;;;;;;;3.08;1.80;;;;;;;;;;5035858;28;20052;-61
2021/09/27 11:29:36;;;;;;;2.20;1.15;;;;;;;;;;5032557;28;20400;-62
2021/09/27 11:32:17;;;;;;;5.55;1.55;;;;;;;;;;5033981;28;20064;-61
2021/09/27 11:34:52;;;;;;;4.05;1.48;;;;;;;;;;5022129;28;20095;-62
2021/09/27 11:37:21;;;;;;;2.28;1.20;;;;;;;;;;5030932;28;20128;-62
2021/09/27 11:39:47;;;;;;;4.22;1.98;;;;;;;;;;5035351;28;20057;-62
2021/09/27 11:42:34;;;;;;;4.97;1.77;;;;;;;;;;5037467;28;20041;-62
2021/09/27 11:45:01;;;;;;;3.95;1.38;;;;;;;;;;5034304;28;20057;-63
2021/09/27 11:47:43;;;;;;;4.55;1.40;;;;;;;;;;5033769;28;20492;-62
2021/09/27 11:50:26;;;;;;;2.33;1.15;;;;;;;;;;5039158;28;20487;-61
2021/09/27 11:52:57;;;;;;;5.05;1.40;;;;;;;;;;5039934;28;20056;-61
2021/09/27 11:55:32;;;;;;;2.20;1.20;;;;;;;;;;5040315;28;20121;-62
2021/09/27 11:58:17;;;;;;;4.80;1.35;;;;;;;;;;5039516;28;20100;-61
2021/09/27 12:00:55;;;;;;;2.92;1.25;;;;;;;;;;5034892;28;20064;-62
2021/09/27 12:03:30;;;;;;;4.63;1.20;;;;;;;;;;5041725;28;20057;-61
2021/09/27 12:05:59;;;;;;;6.47;1.17;;;;;;;;;;5040705;28;20064;-61
2021/09/27 12:08:38;;;;;;;2.95;1.08;;;;;;;;;;5034979;28;20487;-62
2021/09/27 12:11:10;;;;;;;2.45;1.23;;;;;;;;;;5036724;28;20079;-61
2021/09/27 12:13:41;;;;;;;4.20;1.50;;;;;;;;;;5039980;28;20045;-61
2021/09/27 12:16:28;;;;;;;1.48;1.00;;;;;;;;;;5039915;28;20411;-62
2021/09/27 12:18:56;;;;;;;8.32;1.27;;;;;;;;;;5033684;28;20134;-62
2021/09/27 12:21:23;;;;;;;4.50;1.20;;;;;;;;;;5031592;28;20068;-62
2021/09/27 12:23:54;;;;;;;1.77;1.02;;;;;;;;;;5033622;28;20050;-62
2021/09/27 12:26:23;;;;;;;2.75;1.27;;;;;;;;;;5036753;28;20046;-63
2021/09/27 12:28:59;;;;;;;3.97;1.13;;;;;;;;;;5025881;28;20045;-61
2021/09/27 12:31:26;;;;;;;4.20;1.15;;;;;;;;;;5038246;28;20561;-62
2021/09/27 12:33:52;;;;;;;2.20;0.98;;;;;;;;;;5040389;28;20085;-61
2021/09/27 12:36:19;;;;;;;4.03;1.30;;;;;;;;;;5040278;28;20107;-62
2021/09/27 12:38:47;;;;;;;2.95;1.20;;;;;;;;;;5034386;28;20084;-61
2021/09/27 12:41:14;;;;;;;4.40;1.40;;;;;;;;;;5034438;28;20189;-61
2021/09/27 12:43:41;;;;;;;2.67;1.17;;;;;;;;;;5039052;28;20068;-61
2021/09/27 12:46:29;;;;;;;2.55;1.13;;;;;;;;;;5039307;28;20046;-61
2021/09/27 12:48:57;;;;;;;3.92;1.20;;;;;;;;;;5039550;28;20125;-61
2021/09/27 12:51:26;;;;;;;3.28;1.35;;;;;;;;;;5041220;28;20059;-61
2021/09/27 12:53:57;;;;;;;4.90;1.33;;;;;;;;;;5034440;28;20045;-61
2021/09/27 12:56:23;;;;;;;2.33;1.25;;;;;;;;;;5035643;28;20080;-61
2021/09/27 12:58:50;;;;;;;4.18;1.30;;;;;;;;;;5037286;28;20091;-61
2021/09/27 13:01:20;;;;;;;3.42;1.30;;;;;;;;;;5038681;28;20049;-60
2021/09/27 13:04:07;;;;;;;4.85;1.58;;;;;;;;;;5037803;28;20088;-61
2021/09/27 13:06:35;;;;;;;4.80;1.23;;;;;;;;;;5025104;28;20120;-61
2021/09/27 13:09:09;;;;;;;3.08;1.25;;;;;;;;;;5035884;28;20522;-62
2021/09/27 13:11:43;;;;;;;3.30;1.23;;;;;;;;;;5033679;28;20110;-61
2021/09/27 13:14:17;;;;;;;4.88;1.40;;;;;;;;;;5027968;28;20458;-62
2021/09/27 13:16:45;;;;;;;4.60;1.50;;;;;;;;;;5017832;28;20045;-63
2021/09/27 13:19:31;;;;;;;2.72;1.38;;;;;;;;;;5038719;28;20053;-64
2021/09/27 13:21:58;;;;;;;4.90;1.30;;;;;;;;;;5030543;28;20507;-62
2021/09/27 13:24:29;;;;;;;4.85;1.42;;;;;;;;;;5031715;28;20081;-61
2021/09/27 13:26:56;;;;;;;4.25;1.10;;;;;;;;;;5033896;28;20045;-61
2021/09/27 13:29:26;;;;;;;5.30;1.83;;;;;;;;;;5033488;28;20042;-61
2021/09/27 13:32:15;;;;;;;5.30;1.25;;;;;;;;;;5036147;28;20045;-62
2021/09/27 13:34:49;;;;;;;4.63;1.20;;;;;;;;;;5017349;28;20054;-62
2021/09/27 13:37:26;;;;;;;4.68;1.20;;;;;;;;;;5038558;28;20475;-61
2021/09/27 13:39:57;;;;;;;3.30;1.35;;;;;;;;;;5032705;28;20133;-61
2021/09/27 13:42:37;;;;;;;2.00;1.20;;;;;;;;;;5025508;28;20045;-61
2021/09/27 13:45:04;;;;;;;2.08;0.90;;;;;;;;;;5030787;28;20045;-61
2021/09/27 13:47:30;;;;;;;4.13;1.00;;;;;;;;;;5028950;28;20077;-61
2021/09/27 13:49:57;;;;;;;4.22;1.45;;;;;;;;;;5028305;28;20056;-62
2021/09/27 13:52:29;;;;;;;3.75;1.38;;;;;;;;;;5029857;28;20454;-62
2021/09/27 13:54:56;;;;;;;2.97;1.23;;;;;;;;;;5041508;28;20069;-62
2021/09/27 13:57:22;;;;;;;2.72;0.98;;;;;;;;;;5030540;28;20042;-62
2021/09/27 13:59:49;;;;;;;5.13;1.75;;;;;;;;;;5031855;28;20041;-62
2021/09/27 14:02:15;;;;;;;5.00;1.45;;;;;;;;;;5026686;28;20049;-62
2021/09/27 14:04:41;;;;;;;2.92;1.27;;;;;;;;;;5034550;28;20045;-62
2021/09/27 14:07:08;;;;;;;4.57;1.10;;;;;;;;;;5032096;28;20045;-61
2021/09/27 14:09:34;;;;;;;3.30;1.35;;;;;;;;;;5036851;28;20056;-61
2021/09/27 14:12:00;;;;;;;5.72;2.03;;;;;;;;;;5035527;28;20041;-61
2021/09/27 14:14:31;;;;;;;2.78;1.20;;;;;;;;;;5032801;28;20607;-61
2021/09/27 14:16:58;;;;;;;6.47;1.23;;;;;;;;;;5039480;28;20128;-62
2021/09/27 14:19:25;;;;;;;2.50;1.30;;;;;;;;;;5041956;28;20053;-62
2021/09/27 14:21:52;;;;;;;2.83;1.30;;;;;;;;;;5042997;28;20606;-61
2021/09/27 14:24:18;;;;;;;2.95;1.27;;;;;;;;;;5041838;28;20477;-62
2021/09/27 14:26:46;;;;;;;2.33;1.20;;;;;;;;;;5030725;28;20116;-62
2021/09/27 14:29:14;;;;;;;2.70;1.10;;;;;;;;;;5032945;28;20124;-61
2021/09/27 14:31:41;;;;;;;3.38;1.30;;;;;;;;;;5020391;28;20069;-62
2021/09/27 14:34:07;;;;;;;1.85;0.98;;;;;;;;;;5041605;28;20571;-62
2021/09/27 14:36:34;;;;;;;1.58;0.95;;;;;;;;;;5044818;28;20045;-61
2021/09/27 14:39:00;;;;;;;3.80;1.30;;;;;;;;;;5038353;28;20053;-62
2021/09/27 14:41:26;;;;;;;5.13;1.20;;;;;;;;;;5036625;28;20491;-62
2021/09/27 14:43:53;;;;;;;2.25;1.08;;;;;;;;;;5039765;28;20080;-63
2021/09/27 14:46:20;;;;;;;4.78;1.23;;;;;;;;;;5040990;28;20053;-62
2021/09/27 14:48:48;;;;;;;3.45;1.38;;;;;;;;;;5043570;28;20063;-62
2021/09/27 14:51:15;;;;;;;2.35;1.20;;;;;;;;;;5041224;28;20049;-61
2021/09/27 14:53:42;;;;;;;6.78;1.27;;;;;;;;;;5036554;28;20406;-62
2021/09/27 14:56:08;;;;;;;5.20;1.20;;;;;;;;;;5037074;28;20388;-61
2021/09/27 14:58:35;;;;;;;2.05;1.10;;;;;;;;;;5041539;28;20044;-63
2021/09/27 15:01:04;;;;;;;4.90;1.20;;;;;;;;;;5041316;28;20518;-62
2021/09/27 15:03:30;;;;;;;4.03;1.25;;;;;;;;;;5040876;28;20071;-62
2021/09/27 15:05:57;;;;;;;3.80;1.23;;;;;;;;;;5037240;28;20064;-61